ENMS/MJF METAR and TAF weather

Enter ICAO airport designator
Station Type Date Time Source
ENMS METAR 2019/10/21 05:50 UTC NOAA

ENMS 210550Z VRB02KT 9999 FEW029 BKN053 M01/M04 Q1015 RMK WIND 412FT VRB02KT


Station Type Date Time Source
ENMS Decoded METAR 2019/10/21 05:50 UTC NOAA

Mosjoen Kjaerstad, Norway (ENMS) 65-48N 013-08E
Oct 21, 2019 - 01:50 AM EDT / 2019.10.21 0550 UTC
Wind: Variable at 2 MPH (2 KT):0
Visibility: greater than 7 mile(s):0
Sky conditions: mostly cloudy
Temperature: 30 F (-1 C)
Dew Point: 24 F (-4 C)
Relative Humidity: 80%
Pressure (altimeter): 29.97 in. Hg (1015 hPa)
ob: ENMS 210550Z VRB02KT 9999 FEW029 BKN053 M01/M04 Q1015 RMK WIND 412FT VRB02KT
cycle: 6

Station Type Date Time Source
ENMS TAF UTC NOAA

Error!

Example: see airport list